createdAt,value
2022-08-14T00:02:01.448Z,22.98
2022-08-14T00:04:35.862Z,22.96
2022-08-14T00:07:14.055Z,22.92
2022-08-14T00:09:55.614Z,22.88
2022-08-14T00:12:47.905Z,22.84
2022-08-14T00:15:21.779Z,22.79
2022-08-14T00:17:53.372Z,22.75
2022-08-14T00:20:31.181Z,22.75
2022-08-14T00:23:17.406Z,22.72
2022-08-14T00:25:59.102Z,22.73
2022-08-14T00:28:36.746Z,22.72
2022-08-14T00:31:07.796Z,22.74
2022-08-14T00:33:39.283Z,22.75
2022-08-14T00:36:37.319Z,22.72
2022-08-14T00:39:18.122Z,22.67
2022-08-14T00:41:47.425Z,22.70
2022-08-14T00:44:21.560Z,22.69
2022-08-14T00:47:00.888Z,22.64
2022-08-14T00:49:30.233Z,22.61
2022-08-14T00:52:00.408Z,22.55
2022-08-14T00:54:29.831Z,22.55
2022-08-14T00:56:58.444Z,22.54
2022-08-14T00:59:28.606Z,22.59
2022-08-14T01:01:59.134Z,22.60
2022-08-14T01:04:38.102Z,22.58
2022-08-14T01:07:20.526Z,22.53
2022-08-14T01:09:52.763Z,22.41
2022-08-14T01:12:26.318Z,22.32
2022-08-14T01:14:58.233Z,22.18
2022-08-14T01:17:50.209Z,22.18
2022-08-14T01:20:39.422Z,22.18
2022-08-14T01:23:16.349Z,22.32
2022-08-14T01:25:47.802Z,22.31
2022-08-14T01:28:47.067Z,22.26
2022-08-14T01:31:05.994Z,22.00
2022-08-14T01:33:52.190Z,21.82
2022-08-14T01:36:23.723Z,21.66
2022-08-14T01:38:55.339Z,21.57
2022-08-14T01:41:29.943Z,21.51
2022-08-14T01:44:01.624Z,21.44
2022-08-14T01:46:33.343Z,21.38
2022-08-14T01:49:07.547Z,21.32
2022-08-14T01:51:36.456Z,21.29
2022-08-14T01:54:14.261Z,21.28
2022-08-14T01:56:44.801Z,21.44
2022-08-14T01:59:21.787Z,21.53
2022-08-14T02:01:58.677Z,21.59
2022-08-14T02:04:40.762Z,21.63
2022-08-14T02:07:34.683Z,21.67
2022-08-14T02:10:13.271Z,21.62
2022-08-14T02:12:54.182Z,21.60
2022-08-14T02:15:25.790Z,21.55
2022-08-14T02:17:54.387Z,21.64
2022-08-14T02:20:23.513Z,21.64
2022-08-14T02:22:54.964Z,21.61
2022-08-14T02:25:24.700Z,21.57
2022-08-14T02:28:22.350Z,21.54
2022-08-14T02:30:46.104Z,21.53
2022-08-14T02:33:14.239Z,21.55
2022-08-14T02:35:43.390Z,21.53
2022-08-14T02:38:30.585Z,21.54
2022-08-14T02:41:01.156Z,21.58
2022-08-14T02:43:37.423Z,21.57
2022-08-14T02:46:20.444Z,21.55
2022-08-14T02:49:04.825Z,21.57
2022-08-14T02:51:34.898Z,21.59
2022-08-14T02:54:06.797Z,21.60
2022-08-14T02:57:39.197Z,21.57
2022-08-14T02:59:29.627Z,21.52
2022-08-14T03:02:03.328Z,21.54
2022-08-14T03:04:32.960Z,21.43
2022-08-14T03:07:07.215Z,21.40
2022-08-14T03:09:42.164Z,21.50
2022-08-14T03:12:32.212Z,21.46
2022-08-14T03:15:03.743Z,21.45
2022-08-14T03:17:56.290Z,21.44
2022-08-14T03:20:22.636Z,21.38
2022-08-14T03:22:53.619Z,21.40
2022-08-14T03:25:23.110Z,21.33
2022-08-14T03:27:58.030Z,21.24
2022-08-14T03:30:39.777Z,21.25
2022-08-14T03:33:12.162Z,21.19
2022-08-14T03:35:59.794Z,21.16
2022-08-14T03:39:10.617Z,20.99
2022-08-14T03:41:23.196Z,20.99
2022-08-14T03:43:57.757Z,21.03
2022-08-14T03:46:51.885Z,21.06
2022-08-14T03:49:24.324Z,21.03
2022-08-14T03:51:57.685Z,21.17
2022-08-14T03:54:26.316Z,21.17
2022-08-14T03:56:54.996Z,21.18
2022-08-14T03:59:24.429Z,21.16
2022-08-14T04:02:01.379Z,21.19
2022-08-14T04:04:30.818Z,21.20
2022-08-14T04:07:00.396Z,21.20
2022-08-14T04:09:29.323Z,21.22
2022-08-14T04:11:58.307Z,21.21
2022-08-14T04:14:29.093Z,21.24
2022-08-14T04:16:57.528Z,21.22
2022-08-14T04:19:28.051Z,21.01
2022-08-14T04:22:03.611Z,21.01
2022-08-14T04:24:39.219Z,21.04
2022-08-14T04:27:09.967Z,21.04
2022-08-14T04:29:42.709Z,21.07
2022-08-14T04:33:01.178Z,21.11
2022-08-14T04:35:07.436Z,21.13
2022-08-14T04:37:55.641Z,21.16
2022-08-14T04:40:55.486Z,21.15
2022-08-14T04:43:40.058Z,21.18
2022-08-14T04:46:54.831Z,21.21
2022-08-14T04:49:00.545Z,21.27
2022-08-14T04:51:30.139Z,21.28
2022-08-14T04:54:05.881Z,21.31
2022-08-14T04:56:34.798Z,21.34
2022-08-14T04:59:09.983Z,21.39
2022-08-14T05:01:45.208Z,21.42
2022-08-14T05:04:20.097Z,21.42
2022-08-14T05:06:49.836Z,21.36
2022-08-14T05:09:22.266Z,21.38
2022-08-14T05:11:51.496Z,21.43
2022-08-14T05:14:43.383Z,21.35
2022-08-14T05:17:11.946Z,21.20
2022-08-14T05:19:44.571Z,21.17
2022-08-14T05:22:27.989Z,21.18
2022-08-14T05:24:55.991Z,21.21
2022-08-14T05:27:24.273Z,21.16
2022-08-14T05:29:56.869Z,21.03
2022-08-14T05:32:28.135Z,21.03
2022-08-14T05:34:59.093Z,21.15
2022-08-14T05:37:29.672Z,21.24
2022-08-14T05:40:02.116Z,21.36
2022-08-14T05:42:32.297Z,21.50
2022-08-14T05:45:17.111Z,21.58
2022-08-14T05:47:46.410Z,21.60
2022-08-14T05:50:19.894Z,21.74
2022-08-14T05:52:50.904Z,21.76
2022-08-14T05:55:22.014Z,21.85
2022-08-14T05:57:53.855Z,21.91
2022-08-14T06:00:29.925Z,22.02
2022-08-14T06:03:06.821Z,22.12
2022-08-14T06:05:38.652Z,22.21
2022-08-14T06:08:08.858Z,22.24
2022-08-14T06:10:57.141Z,22.20
2022-08-14T06:13:31.742Z,22.14
2022-08-14T06:16:12.858Z,22.08
2022-08-14T06:18:42.186Z,22.03
2022-08-14T06:21:13.585Z,21.99
2022-08-14T06:23:41.976Z,22.01
2022-08-14T06:26:11.116Z,22.07
2022-08-14T06:28:39.057Z,22.21
2022-08-14T06:31:11.204Z,22.35
2022-08-14T06:35:02.717Z,22.46
2022-08-14T06:36:29.422Z,22.57
2022-08-14T06:38:57.553Z,22.63
2022-08-14T06:41:44.048Z,22.68
2022-08-14T06:44:13.368Z,22.63
2022-08-14T06:46:41.754Z,22.67
2022-08-14T06:49:17.314Z,22.69
2022-08-14T06:51:47.082Z,22.77
2022-08-14T06:54:18.290Z,22.77
2022-08-14T06:56:54.349Z,22.77
2022-08-14T06:59:25.015Z,22.77
2022-08-14T07:02:13.638Z,22.76
2022-08-14T07:05:05.564Z,22.69
2022-08-14T07:07:40.233Z,22.83
2022-08-14T07:10:17.062Z,22.81
2022-08-14T07:12:56.652Z,22.79
2022-08-14T07:15:33.614Z,22.83
2022-08-14T07:18:03.551Z,22.86
2022-08-14T07:20:32.224Z,22.89
2022-08-14T07:23:08.070Z,22.91
2022-08-14T07:25:40.116Z,22.95
2022-08-14T07:28:13.011Z,22.98
2022-08-14T07:30:50.874Z,23.12
2022-08-14T07:33:24.556Z,23.18
2022-08-14T07:35:58.286Z,23.25
2022-08-14T07:38:35.879Z,23.26
2022-08-14T07:41:11.638Z,23.36
2022-08-14T07:43:42.795Z,23.31
2022-08-14T07:46:12.295Z,23.48
2022-08-14T07:48:43.452Z,23.37
2022-08-14T07:51:11.548Z,23.53
2022-08-14T07:53:41.424Z,23.58
2022-08-14T07:56:36.780Z,23.65
2022-08-14T07:58:59.999Z,23.70
2022-08-14T08:01:30.868Z,23.76
2022-08-14T08:04:01.181Z,23.78
2022-08-14T08:06:30.527Z,23.72
2022-08-14T08:09:03.648Z,23.87
2022-08-14T08:11:37.450Z,23.93
2022-08-14T08:14:10.706Z,23.95
2022-08-14T08:16:47.330Z,23.96
2022-08-14T08:19:19.351Z,23.93
2022-08-14T08:21:47.980Z,24.05
2022-08-14T08:24:19.885Z,24.08
2022-08-14T08:26:50.278Z,24.05
2022-08-14T08:29:28.267Z,24.16
2022-08-14T08:32:01.903Z,24.18
2022-08-14T08:34:45.326Z,24.19
2022-08-14T08:37:14.550Z,24.23
2022-08-14T08:40:03.201Z,24.28
2022-08-14T08:42:38.469Z,24.22
2022-08-14T08:45:12.166Z,24.34
2022-08-14T08:47:41.156Z,24.35
2022-08-14T08:50:31.769Z,24.40
2022-08-14T08:53:01.897Z,24.46
2022-08-14T08:55:34.200Z,24.49
2022-08-14T08:58:05.523Z,24.55
2022-08-14T09:00:43.243Z,24.60
2022-08-14T09:03:12.861Z,24.63
2022-08-14T09:05:56.215Z,24.65
2022-08-14T09:08:31.832Z,24.67
2022-08-14T09:11:19.929Z,24.70
2022-08-14T09:13:51.485Z,24.74
2022-08-14T09:16:22.097Z,24.77
2022-08-14T09:18:53.437Z,24.80
2022-08-14T09:21:24.431Z,24.86
2022-08-14T09:24:28.314Z,24.92
2022-08-14T09:26:49.259Z,24.97
2022-08-14T09:29:19.997Z,24.97
2022-08-14T09:31:57.676Z,25.00
2022-08-14T09:34:47.484Z,25.02
2022-08-14T09:37:45.659Z,25.09
2022-08-14T09:40:26.420Z,25.11
2022-08-14T09:43:09.927Z,25.09
2022-08-14T09:45:53.242Z,25.11
2022-08-14T09:48:27.662Z,25.16
2022-08-14T09:54:18.073Z,25.30
2022-08-14T09:56:32.779Z,25.34
2022-08-14T09:59:15.022Z,25.32
2022-08-14T10:01:46.135Z,25.24
2022-08-14T10:04:33.024Z,25.32
2022-08-14T10:07:03.372Z,25.37
2022-08-14T10:09:33.427Z,25.37
2022-08-14T10:12:05.374Z,25.35
2022-08-14T10:14:37.180Z,25.34
2022-08-14T10:17:08.700Z,25.37
2022-08-14T10:19:48.151Z,25.43
2022-08-14T10:23:12.678Z,25.50
2022-08-14T10:25:14.141Z,25.66
2022-08-14T10:27:46.398Z,25.71
2022-08-14T10:30:22.823Z,25.66
2022-08-14T10:32:55.593Z,25.90
2022-08-14T10:35:31.801Z,26.00
2022-08-14T10:38:01.804Z,26.14
2022-08-14T10:40:43.560Z,26.22
2022-08-14T10:43:22.721Z,26.28
2022-08-14T10:46:21.826Z,26.32
2022-08-14T10:48:57.818Z,26.42
2022-08-14T10:51:27.107Z,26.58
2022-08-14T10:54:01.879Z,26.64
2022-08-14T10:56:45.509Z,26.48
2022-08-14T10:59:14.084Z,26.46
2022-08-14T11:01:43.780Z,26.31
2022-08-14T11:04:26.123Z,26.32
2022-08-14T11:06:57.007Z,26.31
2022-08-14T11:09:26.345Z,26.34
2022-08-14T11:12:33.172Z,26.39
2022-08-14T11:14:59.838Z,26.44
2022-08-14T11:17:33.136Z,26.45
2022-08-14T11:20:03.492Z,26.41
2022-08-14T11:22:52.720Z,26.38
2022-08-14T11:25:23.707Z,26.38
2022-08-14T11:27:55.105Z,26.35
2022-08-14T11:30:51.338Z,26.44
2022-08-14T11:33:16.370Z,26.51
2022-08-14T11:35:48.929Z,26.60
2022-08-14T11:38:21.331Z,26.71
2022-08-14T11:40:49.456Z,26.82
2022-08-14T11:43:18.358Z,26.83
2022-08-14T11:45:52.124Z,26.90
2022-08-14T11:49:03.230Z,27.03
2022-08-14T11:51:14.562Z,27.19
2022-08-14T11:53:45.745Z,27.46
2022-08-14T11:56:14.001Z,27.54
2022-08-14T11:58:44.566Z,27.64
2022-08-14T12:01:13.021Z,27.73
2022-08-14T12:03:52.081Z,27.83
2022-08-14T12:06:39.259Z,27.92
2022-08-14T12:09:08.681Z,28.02
2022-08-14T12:11:47.615Z,28.14
2022-08-14T12:14:30.981Z,28.33
2022-08-14T12:17:12.822Z,28.62
2022-08-14T12:19:50.907Z,28.92
2022-08-14T12:22:30.439Z,29.22
2022-08-14T12:24:58.584Z,29.40
2022-08-14T12:27:41.647Z,29.41
2022-08-14T12:30:21.011Z,29.40
2022-08-14T12:32:49.264Z,29.34
2022-08-14T12:35:20.299Z,29.25
2022-08-14T12:37:50.594Z,29.19
2022-08-14T12:40:24.329Z,29.17
2022-08-14T12:42:56.727Z,29.20
2022-08-14T12:45:33.476Z,29.26
2022-08-14T12:48:21.337Z,29.33
2022-08-14T12:50:53.143Z,29.39
2022-08-14T12:53:22.326Z,29.49
2022-08-14T12:56:21.716Z,29.60
2022-08-14T12:58:52.421Z,29.72
2022-08-14T13:01:22.550Z,29.80
2022-08-14T13:03:52.661Z,29.82
2022-08-14T13:06:23.183Z,29.82
2022-08-14T13:08:53.621Z,29.88
2022-08-14T13:11:36.420Z,29.96
2022-08-14T13:14:17.628Z,30.02
2022-08-14T13:16:50.373Z,30.15
2022-08-14T13:19:21.126Z,30.13
2022-08-14T13:22:04.808Z,30.22
2022-08-14T13:24:35.705Z,30.24
2022-08-14T13:27:05.090Z,30.27
2022-08-14T13:29:43.953Z,30.28
2022-08-14T13:32:15.308Z,30.05
2022-08-14T13:34:46.097Z,29.81
2022-08-14T13:37:17.218Z,29.87
2022-08-14T13:39:56.271Z,30.16
2022-08-14T13:42:30.304Z,30.42
2022-08-14T13:45:01.106Z,30.66
2022-08-14T13:47:30.871Z,30.81
2022-08-14T13:50:02.902Z,30.78
2022-08-14T13:52:52.829Z,30.68
2022-08-14T13:55:23.970Z,30.61
2022-08-14T13:58:03.402Z,30.78
2022-08-14T14:00:51.745Z,30.92
2022-08-14T14:03:23.294Z,31.18
2022-08-14T14:05:54.249Z,31.32
2022-08-14T14:08:46.303Z,31.51
2022-08-14T14:11:15.992Z,31.71
2022-08-14T14:13:45.276Z,31.94
2022-08-14T14:16:15.270Z,32.22
2022-08-14T14:18:52.059Z,32.35
2022-08-14T14:21:21.717Z,32.46
2022-08-14T14:23:51.695Z,32.49
2022-08-14T14:26:23.946Z,32.56
2022-08-14T14:28:56.398Z,32.74
2022-08-14T14:31:30.062Z,32.72
2022-08-14T14:34:01.137Z,32.72
2022-08-14T14:36:36.613Z,32.81
2022-08-14T14:39:08.056Z,32.93
2022-08-14T14:41:43.681Z,33.07
2022-08-14T14:44:15.922Z,32.95
2022-08-14T14:46:50.697Z,32.57
2022-08-14T14:49:21.522Z,32.14
2022-08-14T14:51:51.326Z,32.21
2022-08-14T14:54:31.413Z,31.95
2022-08-14T14:57:02.532Z,31.85
2022-08-14T14:59:33.401Z,31.75
2022-08-14T15:02:07.731Z,31.72
2022-08-14T15:04:38.115Z,31.61
2022-08-14T15:07:07.516Z,31.31
2022-08-14T15:09:36.933Z,31.12
2022-08-14T15:12:16.285Z,30.94
2022-08-14T15:14:56.259Z,31.38
2022-08-14T15:17:28.667Z,31.69
2022-08-14T15:20:05.309Z,32.16
2022-08-14T15:22:34.875Z,32.61
2022-08-14T15:25:04.364Z,32.91
2022-08-14T15:27:32.668Z,33.09
2022-08-14T15:30:00.638Z,33.39
2022-08-14T15:32:29.234Z,33.50
2022-08-14T15:34:58.125Z,33.58
2022-08-14T15:37:26.015Z,33.78
2022-08-14T15:40:02.019Z,33.85
2022-08-14T15:42:32.491Z,33.71
2022-08-14T15:45:01.643Z,33.45
2022-08-14T15:47:35.327Z,32.89
2022-08-14T15:50:09.971Z,32.41
2022-08-14T15:52:38.693Z,32.19
2022-08-14T15:55:10.060Z,32.29
2022-08-14T15:57:51.727Z,32.20
2022-08-14T16:00:49.595Z,32.32
2022-08-14T16:03:27.449Z,32.52
2022-08-14T16:06:04.616Z,32.72
2022-08-14T16:08:33.841Z,32.70
2022-08-14T16:11:05.098Z,32.50
2022-08-14T16:13:42.980Z,32.50
2022-08-14T16:16:34.954Z,32.49
2022-08-14T16:22:57.009Z,32.72
2022-08-14T16:24:59.755Z,32.90
2022-08-14T16:27:38.929Z,32.98
2022-08-14T16:30:24.519Z,33.01
2022-08-14T16:32:57.211Z,33.01
2022-08-14T16:35:41.827Z,33.03
2022-08-14T16:38:19.851Z,33.01
2022-08-14T16:40:23.772Z,32.65
2022-08-14T16:41:22.235Z,32.95
2022-08-14T16:43:54.024Z,32.84
2022-08-14T16:46:32.507Z,32.68
2022-08-14T16:49:01.605Z,32.47
2022-08-14T16:51:31.053Z,32.42
2022-08-14T16:54:20.939Z,32.42
2022-08-14T16:56:54.598Z,32.36
2022-08-14T16:59:30.312Z,32.27
2022-08-14T17:02:14.724Z,32.35
2022-08-14T17:04:49.256Z,32.30
2022-08-14T17:07:17.593Z,32.18
2022-08-14T17:09:48.715Z,32.14
2022-08-14T17:12:33.999Z,32.06
2022-08-14T17:15:10.630Z,31.94
2022-08-14T17:17:50.076Z,31.75
2022-08-14T17:20:54.747Z,31.69
2022-08-14T17:23:15.167Z,31.53
2022-08-14T17:25:51.078Z,31.30
2022-08-14T17:28:52.245Z,30.98
2022-08-14T17:31:09.242Z,30.65
2022-08-14T17:33:40.961Z,30.37
2022-08-14T17:36:21.321Z,30.14
2022-08-14T17:39:06.439Z,29.87
2022-08-14T17:41:43.814Z,29.66
2022-08-14T17:44:20.217Z,29.41
2022-08-14T17:46:55.339Z,29.28
2022-08-14T17:49:32.254Z,29.11
2022-08-14T17:52:03.717Z,28.95
2022-08-14T17:54:39.203Z,28.79
2022-08-14T17:57:14.397Z,28.65
2022-08-14T17:59:43.713Z,28.54
2022-08-14T18:02:16.801Z,28.41
2022-08-14T18:04:47.406Z,28.28
2022-08-14T18:07:59.551Z,28.18
2022-08-14T18:10:52.519Z,28.06
2022-08-14T18:12:59.099Z,27.96
2022-08-14T18:15:35.415Z,27.88
2022-08-14T18:18:09.012Z,27.72
2022-08-14T18:21:40.371Z,27.61
2022-08-14T18:23:28.454Z,27.60
2022-08-14T18:25:59.057Z,27.53
2022-08-14T18:28:47.816Z,27.51
2022-08-14T18:31:42.345Z,27.43
2022-08-14T18:34:32.424Z,27.39
2022-08-14T18:37:17.446Z,27.37
2022-08-14T18:40:01.459Z,27.24
2022-08-14T18:42:44.614Z,27.11
2022-08-14T18:45:18.624Z,27.05
2022-08-14T18:48:14.739Z,27.02
2022-08-14T18:50:49.062Z,26.96
2022-08-14T18:53:24.410Z,26.98
2022-08-14T18:55:59.965Z,26.93
2022-08-14T18:58:34.152Z,26.88
2022-08-14T19:01:09.020Z,26.83
2022-08-14T19:03:56.117Z,26.76
2022-08-14T19:06:40.554Z,26.69
2022-08-14T19:09:29.997Z,26.67
2022-08-14T19:11:58.000Z,26.65
2022-08-14T19:14:48.258Z,26.69
2022-08-14T19:17:42.751Z,26.68
2022-08-14T19:20:12.804Z,26.65
2022-08-14T19:22:42.783Z,26.59
2022-08-14T19:25:48.523Z,26.55
2022-08-14T19:28:31.516Z,26.53
2022-08-14T19:31:42.680Z,26.51
2022-08-14T19:34:37.639Z,26.46
2022-08-14T19:37:10.236Z,26.37
2022-08-14T19:39:53.803Z,26.27
2022-08-14T19:42:28.590Z,26.21
2022-08-14T19:44:59.179Z,26.16
2022-08-14T19:47:47.537Z,26.05
2022-08-14T19:50:38.207Z,25.95
2022-08-14T19:53:16.440Z,25.91
2022-08-14T19:55:59.173Z,25.88
2022-08-14T19:58:55.049Z,25.86
2022-08-14T20:01:37.041Z,25.81
2022-08-14T20:04:22.829Z,25.88
2022-08-14T20:07:00.113Z,25.79
2022-08-14T20:11:11.614Z,25.74
2022-08-14T20:12:34.898Z,25.64
2022-08-14T20:15:11.512Z,25.59
2022-08-14T20:17:53.045Z,25.59
2022-08-14T20:20:31.925Z,25.60
2022-08-14T20:23:02.436Z,25.60
2022-08-14T20:25:45.679Z,25.60
2022-08-14T20:28:31.907Z,25.61
2022-08-14T20:31:15.721Z,25.62
2022-08-14T20:34:06.190Z,25.56
2022-08-14T20:36:38.778Z,25.51
2022-08-14T20:39:10.100Z,25.43
2022-08-14T20:41:51.291Z,25.30
2022-08-14T20:44:38.684Z,25.19
2022-08-14T20:47:08.216Z,25.14
2022-08-14T20:49:37.246Z,25.12
2022-08-14T20:52:18.984Z,25.09
2022-08-14T20:54:51.381Z,25.07
2022-08-14T20:57:22.613Z,25.05
2022-08-14T20:59:57.158Z,25.05
2022-08-14T21:02:50.071Z,24.96
2022-08-14T21:05:22.434Z,24.93
2022-08-14T21:08:09.995Z,24.73
2022-08-14T21:10:51.449Z,24.80
2022-08-14T21:13:27.772Z,24.75
2022-08-14T21:16:34.238Z,24.73
2022-08-14T21:19:01.889Z,24.66
2022-08-14T21:21:41.168Z,24.58
2022-08-14T21:24:38.553Z,24.61
2022-08-14T21:27:09.423Z,24.60
2022-08-14T21:29:49.855Z,24.56
2022-08-14T21:32:33.824Z,24.50
2022-08-14T21:35:08.342Z,24.43
2022-08-14T21:37:46.018Z,24.42
2022-08-14T21:40:40.869Z,24.41
2022-08-14T21:43:07.349Z,24.41
2022-08-14T21:45:53.300Z,24.38
2022-08-14T21:48:25.199Z,24.24
2022-08-14T21:51:01.992Z,24.13
2022-08-14T21:53:59.122Z,23.79
2022-08-14T21:56:38.435Z,23.75
2022-08-14T21:59:18.305Z,23.71
2022-08-14T22:02:00.490Z,23.83
2022-08-14T22:04:40.746Z,23.90
2022-08-14T22:07:16.743Z,23.83
2022-08-14T22:09:55.184Z,23.64
2022-08-14T22:12:57.280Z,23.48
2022-08-14T22:15:14.709Z,23.42
2022-08-14T22:17:44.277Z,23.52
2022-08-14T22:20:16.465Z,23.61
2022-08-14T22:22:46.426Z,23.67
2022-08-14T22:25:17.271Z,23.75
2022-08-14T22:27:56.320Z,23.85
2022-08-14T22:30:26.475Z,23.96
2022-08-14T22:32:56.664Z,24.02
2022-08-14T22:35:26.701Z,23.88
2022-08-14T22:38:34.935Z,23.78
2022-08-14T22:41:03.976Z,23.68
2022-08-14T22:43:35.095Z,23.56
2022-08-14T22:46:06.175Z,23.57
2022-08-14T22:48:44.430Z,23.68
2022-08-14T22:51:13.408Z,23.74
2022-08-14T22:53:44.879Z,23.80
2022-08-14T22:56:20.819Z,23.87
2022-08-14T22:58:54.328Z,23.96
2022-08-14T23:01:55.097Z,23.89
2022-08-14T23:04:35.332Z,23.83
2022-08-14T23:07:14.718Z,23.76
2022-08-14T23:09:56.740Z,23.66
2022-08-14T23:12:31.473Z,23.53
2022-08-14T23:15:00.586Z,23.34
2022-08-14T23:17:39.493Z,23.23
2022-08-14T23:20:18.922Z,23.30
2022-08-14T23:22:52.305Z,23.40
2022-08-14T23:25:44.641Z,23.44
2022-08-14T23:28:34.217Z,23.46
2022-08-14T23:31:08.400Z,23.46
2022-08-14T23:33:45.721Z,23.41
2022-08-14T23:36:32.164Z,23.42
2022-08-14T23:39:07.305Z,23.43
2022-08-14T23:41:46.383Z,23.34
2022-08-14T23:44:21.788Z,23.28
2022-08-14T23:46:57.146Z,23.28
2022-08-14T23:49:57.054Z,23.14
2022-08-14T23:53:07.311Z,23.23
2022-08-14T23:55:11.456Z,23.26
2022-08-14T23:57:44.257Z,23.16
